createdAt,value
2022-12-05T00:00:29.679Z,21.00
2022-12-05T00:02:34.692Z,18.65
2022-12-05T00:04:39.715Z,20.48
2022-12-05T00:06:46.015Z,21.15
2022-12-05T00:08:52.098Z,18.55
2022-12-05T00:10:57.638Z,18.10
2022-12-05T00:13:02.889Z,17.60
2022-12-05T00:15:13.205Z,18.20
2022-12-05T00:17:20.761Z,17.88
2022-12-05T00:19:25.755Z,19.50
2022-12-05T00:21:33.539Z,18.83
2022-12-05T00:23:38.853Z,18.50
2022-12-05T00:25:45.280Z,18.50
2022-12-05T00:27:50.313Z,18.27
2022-12-05T00:29:56.115Z,19.35
2022-12-05T00:32:01.742Z,18.65
2022-12-05T00:34:09.517Z,18.13
2022-12-05T00:36:16.989Z,17.30
2022-12-05T00:38:21.906Z,17.17
2022-12-05T00:40:27.216Z,17.48
2022-12-05T00:42:32.179Z,18.33
2022-12-05T00:44:37.403Z,18.02
2022-12-05T00:46:43.423Z,18.75
2022-12-05T00:48:48.963Z,18.95
2022-12-05T00:51:04.181Z,18.40
2022-12-05T00:53:09.522Z,18.33
2022-12-05T00:55:14.714Z,17.85
2022-12-05T00:57:20.310Z,19.02
2022-12-05T00:59:26.161Z,18.08
2022-12-05T01:01:33.636Z,17.85
2022-12-05T01:03:39.091Z,18.80
2022-12-05T01:05:44.086Z,19.15
2022-12-05T01:07:52.140Z,19.25
2022-12-05T01:09:58.594Z,18.67
2022-12-05T01:12:03.845Z,18.10
2022-12-05T01:14:08.991Z,18.13
2022-12-05T01:16:19.051Z,17.48
2022-12-05T01:18:25.281Z,18.30
2022-12-05T01:20:30.613Z,17.73
2022-12-05T01:22:35.945Z,18.27
2022-12-05T01:24:43.899Z,19.25
2022-12-05T01:26:50.047Z,18.13
2022-12-05T01:28:55.443Z,18.90
2022-12-05T01:31:00.996Z,18.23
2022-12-05T01:33:06.142Z,19.30
2022-12-05T01:35:12.599Z,18.48
2022-12-05T01:37:17.755Z,18.13
2022-12-05T01:39:23.036Z,17.63
2022-12-05T01:41:35.541Z,18.30
2022-12-05T01:44:00.765Z,17.90
2022-12-05T01:46:05.910Z,18.48
2022-12-05T01:48:17.423Z,18.15
2022-12-05T01:50:23.045Z,17.45
2022-12-05T01:52:32.509Z,18.08
2022-12-05T01:54:40.187Z,17.80
2022-12-05T01:56:53.518Z,17.83
2022-12-05T01:59:00.087Z,18.27
2022-12-05T02:01:05.189Z,18.58
2022-12-05T02:03:16.389Z,18.35
2022-12-05T02:05:27.793Z,18.55
2022-12-05T02:07:33.634Z,17.42
2022-12-05T02:09:39.481Z,18.40
2022-12-05T02:11:55.255Z,18.33
2022-12-05T02:14:17.157Z,16.50
2022-12-05T02:16:29.827Z,17.25
2022-12-05T02:18:57.487Z,16.02
2022-12-05T02:24:04.338Z,14.88
2022-12-05T02:26:56.687Z,17.00
2022-12-05T02:29:59.789Z,16.50
2022-12-05T02:32:13.702Z,17.75
2022-12-05T02:34:29.138Z,16.60
2022-12-05T02:36:47.429Z,16.73
2022-12-05T02:39:02.319Z,16.20
2022-12-05T02:41:18.292Z,16.40
2022-12-05T02:43:32.386Z,16.00
2022-12-05T02:45:42.374Z,16.80
2022-12-05T02:47:52.724Z,17.08
2022-12-05T02:50:00.281Z,16.80
2022-12-05T02:52:12.764Z,15.98
2022-12-05T02:54:22.671Z,16.60
2022-12-05T02:56:28.421Z,16.15
2022-12-05T02:58:39.098Z,17.13
2022-12-05T03:00:50.348Z,16.73
2022-12-05T03:03:01.128Z,17.25
2022-12-05T03:05:22.403Z,16.38
2022-12-05T03:07:31.996Z,16.48
2022-12-05T03:09:40.846Z,15.88
2022-12-05T03:11:50.759Z,16.90
2022-12-05T03:14:00.878Z,16.10
2022-12-05T03:16:14.290Z,16.55
2022-12-05T03:18:26.747Z,15.55
2022-12-05T03:20:36.567Z,15.02
2022-12-05T03:22:47.894Z,15.18
2022-12-05T03:24:53.154Z,15.98
2022-12-05T03:27:09.969Z,15.93
2022-12-05T03:29:27.670Z,15.02
2022-12-05T03:33:50.750Z,14.57
2022-12-05T03:36:05.524Z,15.05
2022-12-05T03:38:16.103Z,15.60
2022-12-05T03:40:33.478Z,15.90
2022-12-05T03:42:43.112Z,16.60
2022-12-05T03:44:55.737Z,14.95
2022-12-05T03:47:09.670Z,15.02
2022-12-05T03:49:21.035Z,16.02
2022-12-05T03:51:34.152Z,14.90
2022-12-05T03:53:46.782Z,15.25
2022-12-05T03:56:02.893Z,16.15
2022-12-05T03:58:14.427Z,16.60
2022-12-05T04:00:23.025Z,17.17
2022-12-05T04:02:45.738Z,17.67
2022-12-05T04:04:57.377Z,16.80
2022-12-05T04:07:07.760Z,17.65
2022-12-05T04:09:18.617Z,16.30
2022-12-05T04:11:28.092Z,15.68
2022-12-05T04:13:39.053Z,16.58
2022-12-05T04:15:56.416Z,15.35
2022-12-05T04:18:04.231Z,14.43
2022-12-05T04:22:32.280Z,15.10
2022-12-05T04:24:50.169Z,15.50
2022-12-05T04:29:14.085Z,16.20
2022-12-05T04:33:41.068Z,16.20
2022-12-05T04:35:53.636Z,17.65
2022-12-05T04:38:05.973Z,15.68
2022-12-05T04:40:17.438Z,16.80
2022-12-05T04:42:26.298Z,17.10
2022-12-05T04:44:37.509Z,15.73
2022-12-05T04:46:48.120Z,15.63
2022-12-05T04:49:03.493Z,15.23
2022-12-05T04:51:12.911Z,17.80
2022-12-05T04:53:19.729Z,15.77
2022-12-05T04:55:29.600Z,15.88
2022-12-05T04:57:40.258Z,15.70
2022-12-05T04:59:45.322Z,15.00
2022-12-05T05:01:58.306Z,14.93
2022-12-05T05:04:15.718Z,14.63
2022-12-05T05:06:21.453Z,14.10
2022-12-05T05:08:30.258Z,14.63
2022-12-05T05:10:42.680Z,15.60
2022-12-05T05:12:47.922Z,16.35
2022-12-05T05:14:53.358Z,16.40
2022-12-05T05:16:59.021Z,15.00
2022-12-05T05:19:08.509Z,14.27
2022-12-05T05:21:21.702Z,16.23
2022-12-05T05:23:27.369Z,15.23
2022-12-05T05:25:32.877Z,15.20
2022-12-05T05:27:37.806Z,14.77
2022-12-05T05:29:43.648Z,13.73
2022-12-05T05:31:49.106Z,14.73
2022-12-05T05:33:56.182Z,15.10
2022-12-05T05:36:06.762Z,14.85
2022-12-05T05:38:11.721Z,14.80
2022-12-05T05:40:17.451Z,15.38
2022-12-05T05:42:22.468Z,13.65
2022-12-05T05:44:27.830Z,14.00
2022-12-05T05:46:35.309Z,15.07
2022-12-05T05:48:40.940Z,13.70
2022-12-05T05:50:45.894Z,14.82
2022-12-05T05:52:54.954Z,15.07
2022-12-05T05:55:00.026Z,15.48
2022-12-05T05:57:05.001Z,15.30
2022-12-05T05:59:10.363Z,15.10
2022-12-05T06:01:18.989Z,15.27
2022-12-05T06:03:24.425Z,14.63
2022-12-05T06:05:29.506Z,14.95
2022-12-05T06:07:34.560Z,14.43
2022-12-05T06:09:42.751Z,14.52
2022-12-05T06:11:47.736Z,15.00
2022-12-05T06:13:53.338Z,13.63
2022-12-05T06:15:58.579Z,13.68
2022-12-05T06:18:03.591Z,14.80
2022-12-05T06:20:11.518Z,13.20
2022-12-05T06:22:16.563Z,14.30
2022-12-05T06:24:21.957Z,14.10
2022-12-05T06:26:29.600Z,13.23
2022-12-05T06:28:35.528Z,12.27
2022-12-05T06:30:41.975Z,17.95
2022-12-05T06:32:47.149Z,17.77
2022-12-05T06:34:52.153Z,16.40
2022-12-05T06:36:57.147Z,15.45
2022-12-05T06:39:03.398Z,12.93
2022-12-05T06:41:10.075Z,11.93
2022-12-05T06:43:17.635Z,11.10
2022-12-05T06:45:23.635Z,10.63
2022-12-05T06:47:28.832Z,10.57
2022-12-05T06:49:38.059Z,10.73
2022-12-05T06:51:43.390Z,10.65
2022-12-05T06:53:48.470Z,10.45
2022-12-05T06:56:01.889Z,10.13
2022-12-05T06:58:06.894Z,10.55
2022-12-05T07:00:30.116Z,10.60
2022-12-05T07:02:35.329Z,10.80
2022-12-05T07:04:40.345Z,10.95
2022-12-05T07:06:51.011Z,12.50
2022-12-05T07:08:56.548Z,11.93
2022-12-05T07:11:02.239Z,11.20
2022-12-05T07:13:08.586Z,11.95
2022-12-05T07:15:17.722Z,11.73
2022-12-05T07:17:24.237Z,11.85
2022-12-05T07:19:29.345Z,12.77
2022-12-05T07:21:34.320Z,12.48
2022-12-05T07:23:39.344Z,12.57
2022-12-05T07:25:44.533Z,12.63
2022-12-05T07:27:49.492Z,12.93
2022-12-05T07:29:54.563Z,13.70
2022-12-05T07:32:02.355Z,12.98
2022-12-05T07:34:07.462Z,12.70
2022-12-05T07:36:15.577Z,13.02
2022-12-05T07:38:20.677Z,12.73
2022-12-05T07:40:25.833Z,13.05
2022-12-05T07:42:30.843Z,14.55
2022-12-05T07:44:36.046Z,14.02
2022-12-05T07:46:41.811Z,14.70
2022-12-05T07:48:51.267Z,13.63
2022-12-05T07:50:56.215Z,14.30
2022-12-05T07:53:01.166Z,14.65
2022-12-05T07:55:06.745Z,14.05
2022-12-05T07:57:11.849Z,15.05
2022-12-05T07:59:16.820Z,14.43
2022-12-05T08:01:23.957Z,14.10
2022-12-05T08:05:37.828Z,14.45
2022-12-05T08:07:43.370Z,14.20
2022-12-05T08:09:48.363Z,14.13
2022-12-05T08:11:53.445Z,13.73
2022-12-05T08:13:59.885Z,15.07
2022-12-05T08:16:05.557Z,14.73
2022-12-05T08:18:10.639Z,15.98
2022-12-05T08:20:17.193Z,14.27
2022-12-05T08:22:25.115Z,14.65
2022-12-05T08:24:30.181Z,14.00
2022-12-05T08:26:37.065Z,14.73
2022-12-05T08:28:44.099Z,14.30
2022-12-05T08:30:49.708Z,14.85
2022-12-05T08:32:54.765Z,15.85
2022-12-05T08:34:59.705Z,14.85
2022-12-05T08:37:05.689Z,14.73
2022-12-05T08:39:17.111Z,15.02
2022-12-05T08:41:22.059Z,14.57
2022-12-05T08:43:27.362Z,15.05
2022-12-05T08:45:32.347Z,14.63
2022-12-05T08:47:38.023Z,14.18
2022-12-05T08:49:42.977Z,14.60
2022-12-05T08:51:48.730Z,14.80
2022-12-05T08:53:53.975Z,14.40
2022-12-05T08:56:04.272Z,13.77
2022-12-05T08:58:09.979Z,14.30
2022-12-05T09:00:17.186Z,13.77
2022-12-05T09:02:22.232Z,15.13
2022-12-05T09:04:27.393Z,15.93
2022-12-05T09:06:33.070Z,14.30
2022-12-05T09:08:39.268Z,15.68
2022-12-05T09:10:44.242Z,14.50
2022-12-05T09:12:53.142Z,15.25
2022-12-05T09:14:59.033Z,14.93
2022-12-05T09:17:04.383Z,14.77
2022-12-05T09:19:14.740Z,14.82
2022-12-05T09:21:23.790Z,15.25
2022-12-05T09:25:34.008Z,14.13
2022-12-05T09:27:39.736Z,14.27
2022-12-05T09:29:47.575Z,14.38
2022-12-05T09:31:54.271Z,14.60
2022-12-05T09:33:59.456Z,14.18
2022-12-05T09:36:06.296Z,15.52
2022-12-05T09:38:12.991Z,15.07
2022-12-05T09:40:20.468Z,13.63
2022-12-05T09:42:38.952Z,12.77
2022-12-05T09:45:01.926Z,14.75
2022-12-05T09:47:17.746Z,13.32
2022-12-05T09:49:23.758Z,14.15
2022-12-05T09:51:29.547Z,15.80
2022-12-05T09:53:38.451Z,15.50
2022-12-05T09:55:49.722Z,14.90
2022-12-05T09:57:59.732Z,13.18
2022-12-05T10:00:12.714Z,14.50
2022-12-05T10:02:31.007Z,14.75
2022-12-05T10:05:01.013Z,15.32
2022-12-05T10:07:18.609Z,15.35
2022-12-05T10:09:47.810Z,15.80
2022-12-05T10:12:00.312Z,15.20
2022-12-05T10:14:15.833Z,14.77
2022-12-05T10:16:34.226Z,13.25
2022-12-05T10:18:46.426Z,12.68
2022-12-05T10:20:57.695Z,13.77
2022-12-05T10:23:18.611Z,14.63
2022-12-05T10:25:36.449Z,14.63
2022-12-05T10:27:48.343Z,13.48
2022-12-05T10:30:02.326Z,14.65
2022-12-05T10:32:17.730Z,13.93
2022-12-05T10:34:33.919Z,12.68
2022-12-05T10:36:39.794Z,12.43
2022-12-05T10:38:47.304Z,13.73
2022-12-05T10:40:58.202Z,12.57
2022-12-05T10:43:03.228Z,12.48
2022-12-05T10:45:17.529Z,12.60
2022-12-05T10:47:25.263Z,11.93
2022-12-05T10:51:37.825Z,10.65
2022-12-05T10:53:45.930Z,10.88
2022-12-05T10:58:23.205Z,11.40
2022-12-05T11:00:33.740Z,10.20
2022-12-05T11:02:43.030Z,12.43
2022-12-05T11:04:48.926Z,12.80
2022-12-05T11:07:01.743Z,13.10
2022-12-05T11:09:19.900Z,11.07
2022-12-05T11:11:28.933Z,12.40
2022-12-05T11:13:35.174Z,10.70
2022-12-05T11:15:53.798Z,12.02
2022-12-05T11:18:22.557Z,10.77
2022-12-05T11:20:41.412Z,8.60
2022-12-05T11:22:49.507Z,12.20
2022-12-05T11:24:54.495Z,10.77
2022-12-05T11:27:01.573Z,9.88
2022-12-05T11:29:07.441Z,6.25
2022-12-05T11:31:29.668Z,10.27
2022-12-05T11:33:39.492Z,10.18
2022-12-05T11:35:44.429Z,6.05
2022-12-05T11:37:55.747Z,11.35
2022-12-05T11:40:01.766Z,11.15
2022-12-05T11:42:26.283Z,5.82
2022-12-05T11:45:05.347Z,5.97
2022-12-05T11:47:24.271Z,9.15
2022-12-05T11:50:00.381Z,10.25
2022-12-05T11:52:18.000Z,10.00
2022-12-05T11:57:24.075Z,10.63
2022-12-05T12:00:16.807Z,9.10
2022-12-05T12:02:43.902Z,11.02
2022-12-05T12:05:03.993Z,10.68
2022-12-05T12:07:27.640Z,10.40
2022-12-05T12:09:48.188Z,9.48
2022-12-05T12:12:00.698Z,10.27
2022-12-05T12:14:16.800Z,10.15
2022-12-05T12:16:38.563Z,9.68
2022-12-05T12:19:33.078Z,10.27
2022-12-05T12:21:54.740Z,10.32
2022-12-05T12:24:17.002Z,11.15
2022-12-05T12:26:37.366Z,10.93
2022-12-05T12:28:49.318Z,10.90
2022-12-05T12:31:18.790Z,11.70
2022-12-05T12:33:34.196Z,12.10
2022-12-05T12:35:49.166Z,10.13
2022-12-05T12:38:30.616Z,11.98
2022-12-05T12:40:46.749Z,11.75
2022-12-05T12:43:30.963Z,11.50
2022-12-05T12:46:11.447Z,12.45
2022-12-05T12:48:38.754Z,13.05
2022-12-05T12:53:22.075Z,12.27
2022-12-05T12:55:41.101Z,14.10
2022-12-05T13:00:15.272Z,13.75
2022-12-05T13:02:28.755Z,14.30
2022-12-05T13:04:40.478Z,13.57
2022-12-05T13:06:52.519Z,12.38
2022-12-05T13:09:04.880Z,13.38
2022-12-05T13:11:14.884Z,15.02
2022-12-05T13:13:26.882Z,15.93
2022-12-05T13:15:41.234Z,12.00
2022-12-05T13:17:49.992Z,13.90
2022-12-05T13:19:57.694Z,10.77
2022-12-05T13:22:03.583Z,13.98
2022-12-05T13:24:16.297Z,11.40
2022-12-05T13:26:23.944Z,16.35
2022-12-05T13:28:33.624Z,16.33
2022-12-05T13:30:57.775Z,15.73
2022-12-05T13:33:09.834Z,11.43
2022-12-05T13:35:35.064Z,16.10
2022-12-05T13:38:02.711Z,14.82
2022-12-05T13:40:40.037Z,14.15
2022-12-05T13:44:54.480Z,15.65
2022-12-05T13:46:59.507Z,14.27
2022-12-05T13:49:17.487Z,13.75
2022-12-05T13:51:31.985Z,14.60
2022-12-05T13:53:42.541Z,13.35
2022-12-05T13:56:03.126Z,13.50
2022-12-05T13:58:47.697Z,12.60
2022-12-05T14:00:53.070Z,13.65
2022-12-05T14:03:16.816Z,13.48
2022-12-05T14:05:45.517Z,12.70
2022-12-05T14:07:52.419Z,13.38
2022-12-05T14:09:58.325Z,13.35
2022-12-05T14:12:49.585Z,13.65
2022-12-05T14:15:04.588Z,11.98
2022-12-05T14:17:11.035Z,11.63
2022-12-05T14:19:55.855Z,11.68
2022-12-05T14:22:14.895Z,11.00
2022-12-05T14:24:32.691Z,10.70
2022-12-05T14:29:36.653Z,10.00
2022-12-05T14:32:04.853Z,10.20
2022-12-05T14:34:25.231Z,9.95
2022-12-05T14:36:32.356Z,10.20
2022-12-05T14:38:40.218Z,9.83
2022-12-05T14:40:47.724Z,9.20
2022-12-05T14:42:58.902Z,10.18
2022-12-05T14:45:29.023Z,9.40
2022-12-05T14:47:36.935Z,9.25
2022-12-05T14:50:04.713Z,9.15
2022-12-05T14:52:14.448Z,8.20
2022-12-05T14:54:22.072Z,8.32
2022-12-05T14:56:30.583Z,8.50
2022-12-05T14:58:41.834Z,9.00
2022-12-05T15:00:57.014Z,8.10
2022-12-05T15:03:02.595Z,8.63
2022-12-05T15:05:23.087Z,8.18
2022-12-05T15:07:35.600Z,7.75
2022-12-05T15:09:57.646Z,7.85
2022-12-05T15:12:09.343Z,7.35
2022-12-05T15:14:22.446Z,8.05
2022-12-05T15:16:32.036Z,7.07
2022-12-05T15:18:42.604Z,6.95
2022-12-05T15:20:57.131Z,6.85
2022-12-05T15:23:02.443Z,6.95
2022-12-05T15:25:27.738Z,7.10
2022-12-05T15:27:33.029Z,6.65
2022-12-05T15:29:40.039Z,6.53
2022-12-05T15:31:52.981Z,6.53
2022-12-05T15:34:01.220Z,6.03
2022-12-05T15:36:08.297Z,6.05
2022-12-05T15:38:27.762Z,6.25
2022-12-05T15:40:38.633Z,5.03
2022-12-05T15:42:48.176Z,5.22
2022-12-05T15:44:53.239Z,4.75
2022-12-05T15:47:01.730Z,4.78
2022-12-05T15:49:24.131Z,5.15
2022-12-05T15:51:37.653Z,4.80
2022-12-05T15:53:47.547Z,4.70
2022-12-05T15:55:57.907Z,5.65
2022-12-05T15:58:13.090Z,5.10
2022-12-05T16:00:22.698Z,4.65
2022-12-05T16:02:42.830Z,4.70
2022-12-05T16:04:52.487Z,6.45
2022-12-05T16:07:02.037Z,5.88
2022-12-05T16:09:11.924Z,5.35
2022-12-05T16:11:17.900Z,4.90
2022-12-05T16:13:27.729Z,5.30
2022-12-05T16:15:32.961Z,4.90
2022-12-05T16:17:49.208Z,4.75
2022-12-05T16:19:54.269Z,4.30
2022-12-05T16:22:09.431Z,4.55
2022-12-05T16:24:22.759Z,4.47
2022-12-05T16:26:28.178Z,4.88
2022-12-05T16:28:36.425Z,4.20
2022-12-05T16:30:42.251Z,4.28
2022-12-05T16:32:53.755Z,4.53
2022-12-05T16:34:58.738Z,3.65
2022-12-05T16:37:03.925Z,4.15
2022-12-05T16:39:19.427Z,4.38
2022-12-05T16:41:26.247Z,4.15
2022-12-05T16:43:46.354Z,4.28
2022-12-05T16:45:53.790Z,4.72
2022-12-05T16:48:02.772Z,4.70
2022-12-05T16:50:31.860Z,4.80
2022-12-05T16:52:36.871Z,5.50
2022-12-05T16:54:43.013Z,5.07
2022-12-05T16:56:48.443Z,5.03
2022-12-05T16:58:54.251Z,4.78
2022-12-05T17:01:04.953Z,5.35
2022-12-05T17:03:33.832Z,5.40
2022-12-05T17:05:40.118Z,5.28
2022-12-05T17:07:45.117Z,5.43
2022-12-05T17:09:50.829Z,4.95
2022-12-05T17:12:03.506Z,4.93
2022-12-05T17:14:10.122Z,5.40
2022-12-05T17:16:15.124Z,5.50
2022-12-05T17:18:30.996Z,5.60
2022-12-05T17:20:39.608Z,4.85
2022-12-05T17:24:49.975Z,4.65
2022-12-05T17:26:54.910Z,5.18
2022-12-05T17:29:00.260Z,5.10
2022-12-05T17:31:05.220Z,5.47
2022-12-05T17:33:14.715Z,4.30
2022-12-05T17:35:25.286Z,5.07
2022-12-05T17:37:30.235Z,5.25
2022-12-05T17:39:35.170Z,5.43
2022-12-05T17:41:42.090Z,5.85
2022-12-05T17:43:48.293Z,6.10
2022-12-05T17:45:54.629Z,5.80
2022-12-05T17:48:00.632Z,5.72
2022-12-05T17:50:06.047Z,5.88
2022-12-05T17:52:22.767Z,5.82
2022-12-05T17:54:28.713Z,6.53
2022-12-05T17:56:33.647Z,6.10
2022-12-05T17:58:38.933Z,7.00
2022-12-05T18:00:44.737Z,6.82
2022-12-05T18:02:49.977Z,7.30
2022-12-05T18:04:55.115Z,6.78
2022-12-05T18:07:00.199Z,6.97
2022-12-05T18:09:10.012Z,7.32
2022-12-05T18:11:16.823Z,6.72
2022-12-05T18:13:21.833Z,6.85
2022-12-05T18:15:26.880Z,7.22
2022-12-05T18:17:31.897Z,7.03
2022-12-05T18:19:37.486Z,6.95
2022-12-05T18:23:49.027Z,6.88
2022-12-05T18:26:03.295Z,7.90
2022-12-05T18:28:08.597Z,7.93
2022-12-05T18:30:14.783Z,8.43
2022-12-05T18:32:21.591Z,7.60
2022-12-05T18:34:27.196Z,8.50
2022-12-05T18:36:32.180Z,8.02
2022-12-05T18:38:37.894Z,8.55
2022-12-05T18:40:43.212Z,8.23
2022-12-05T18:42:51.143Z,8.95
2022-12-05T18:47:02.190Z,9.50
2022-12-05T18:49:08.035Z,9.02
2022-12-05T18:51:16.414Z,9.60
2022-12-05T18:53:22.372Z,8.75
2022-12-05T18:55:57.770Z,7.80
2022-12-05T18:58:00.072Z,8.00
2022-12-05T19:00:06.013Z,8.07
2022-12-05T19:02:12.458Z,7.90
2022-12-05T19:04:20.683Z,8.10
2022-12-05T19:10:39.101Z,8.05
2022-12-05T19:12:46.434Z,7.05
2022-12-05T19:14:54.382Z,7.55
2022-12-05T19:17:00.633Z,7.20
2022-12-05T19:19:09.278Z,7.60
2022-12-05T19:21:18.062Z,8.02
2022-12-05T19:23:23.216Z,7.75
2022-12-05T19:25:28.350Z,8.48
2022-12-05T19:27:33.681Z,8.20
2022-12-05T19:29:38.817Z,8.35
2022-12-05T19:31:48.600Z,9.27
2022-12-05T19:33:55.773Z,8.40
2022-12-05T19:36:07.193Z,8.43
2022-12-05T19:38:12.655Z,8.77
2022-12-05T19:40:17.904Z,8.85
2022-12-05T19:42:23.124Z,8.98
2022-12-05T19:44:28.483Z,9.07
2022-12-05T19:46:34.653Z,8.90
2022-12-05T19:48:43.085Z,9.60
2022-12-05T19:50:57.488Z,9.55
2022-12-05T19:53:02.534Z,9.15
2022-12-05T19:55:08.533Z,8.75
2022-12-05T19:57:13.578Z,10.10
2022-12-05T19:59:20.175Z,9.48
2022-12-05T20:01:28.044Z,10.23
2022-12-05T20:05:40.506Z,9.90
2022-12-05T20:07:45.641Z,10.38
2022-12-05T20:09:50.893Z,10.80
2022-12-05T20:11:56.290Z,10.13
2022-12-05T20:14:05.141Z,9.50
2022-12-05T20:16:13.212Z,10.15
2022-12-05T20:18:18.383Z,10.32
2022-12-05T20:20:23.521Z,10.30
2022-12-05T20:22:31.289Z,10.45
2022-12-05T20:24:36.419Z,10.02
2022-12-05T20:26:46.836Z,10.13
2022-12-05T20:28:52.631Z,9.85
2022-12-05T20:31:06.176Z,9.52
2022-12-05T20:33:11.195Z,9.73
2022-12-05T20:35:20.995Z,9.30
2022-12-05T20:37:35.382Z,9.52
2022-12-05T20:39:40.915Z,8.65
2022-12-05T20:41:48.044Z,8.27
2022-12-05T20:43:58.490Z,8.52
2022-12-05T20:46:08.002Z,7.88
2022-12-05T20:48:13.913Z,8.43
2022-12-05T20:50:19.882Z,8.63
2022-12-05T20:52:24.897Z,8.93
2022-12-05T20:54:32.509Z,9.10
2022-12-05T20:58:46.727Z,8.35
2022-12-05T21:00:52.331Z,8.73
2022-12-05T21:02:57.430Z,9.02
2022-12-05T21:05:02.425Z,8.52
2022-12-05T21:07:07.494Z,8.50
2022-12-05T21:09:15.958Z,8.73
2022-12-05T21:11:24.313Z,9.05
2022-12-05T21:13:29.287Z,9.73
2022-12-05T21:15:34.277Z,9.57
2022-12-05T21:17:39.355Z,10.23
2022-12-05T21:19:45.532Z,9.52
2022-12-05T21:21:50.645Z,11.40
2022-12-05T21:23:58.219Z,10.07
2022-12-05T21:26:06.620Z,9.57
2022-12-05T21:28:17.559Z,9.85
2022-12-05T21:30:22.817Z,9.55
2022-12-05T21:32:27.833Z,10.57
2022-12-05T21:34:32.839Z,11.30
2022-12-05T21:36:39.292Z,11.82
2022-12-05T21:38:44.285Z,12.38
2022-12-05T21:40:49.246Z,12.50
2022-12-05T21:42:54.202Z,12.23
2022-12-05T21:45:02.019Z,12.40
2022-12-05T21:47:07.058Z,12.57
2022-12-05T21:49:12.114Z,13.40
2022-12-05T21:51:19.338Z,13.23
2022-12-05T21:53:24.696Z,12.02
2022-12-05T21:55:29.751Z,12.13
2022-12-05T21:57:36.457Z,12.75
2022-12-05T21:59:41.519Z,11.82
2022-12-05T22:01:49.121Z,12.07
2022-12-05T22:03:56.072Z,12.80
2022-12-05T22:06:06.896Z,11.48
2022-12-05T22:08:11.928Z,11.18
2022-12-05T22:10:17.400Z,12.00
2022-12-05T22:12:22.683Z,12.00
2022-12-05T22:14:27.971Z,11.82
2022-12-05T22:16:33.825Z,11.82
2022-12-05T22:18:42.021Z,11.82
2022-12-05T22:20:47.323Z,11.52
2022-12-05T22:22:52.296Z,11.43
2022-12-05T22:24:57.447Z,11.63
2022-12-05T22:27:02.575Z,11.50
2022-12-05T22:29:07.539Z,11.32
2022-12-05T22:31:17.972Z,11.10
2022-12-05T22:33:23.050Z,11.10
2022-12-05T22:35:31.485Z,11.73
2022-12-05T22:37:36.776Z,11.93
2022-12-05T22:39:41.701Z,11.82
2022-12-05T22:41:47.969Z,12.68
2022-12-05T22:44:00.092Z,10.73
2022-12-05T22:46:08.738Z,12.23
2022-12-05T22:48:13.740Z,12.20
2022-12-05T22:50:19.038Z,13.52
2022-12-05T22:52:26.622Z,12.85
2022-12-05T22:56:36.791Z,11.43
2022-12-05T22:58:43.300Z,11.63
2022-12-05T23:00:49.042Z,10.02
2022-12-05T23:02:55.916Z,11.70
2022-12-05T23:05:01.071Z,12.00
2022-12-05T23:07:06.183Z,10.95
2022-12-05T23:09:15.111Z,10.95
2022-12-05T23:11:22.153Z,11.48
2022-12-05T23:13:27.334Z,11.40
2022-12-05T23:15:32.473Z,11.55
2022-12-05T23:17:37.993Z,10.75
2022-12-05T23:19:43.075Z,12.82
2022-12-05T23:21:48.208Z,11.23
2022-12-05T23:23:55.783Z,11.10
2022-12-05T23:26:03.521Z,12.65
2022-12-05T23:28:09.267Z,11.73
2022-12-05T23:30:16.910Z,12.38
2022-12-05T23:32:22.076Z,12.05
2022-12-05T23:34:27.213Z,12.82
2022-12-05T23:36:33.120Z,12.93
2022-12-05T23:38:38.717Z,10.93
2022-12-05T23:40:43.827Z,11.93
2022-12-05T23:42:51.526Z,12.07
2022-12-05T23:44:56.636Z,11.45
2022-12-05T23:47:01.824Z,9.38
2022-12-05T23:49:07.527Z,9.65
2022-12-05T23:51:15.385Z,10.25
2022-12-05T23:55:25.473Z,9.90
2022-12-05T23:57:30.749Z,10.45
2022-12-05T23:59:38.491Z,10.70
